Time;durP1;ratioP1;P1;durP2;ratioP2;P2;SDS_P1;SDS_P2;PMS_P1;PMS_P2;Temp;Humidity;BMP_temperature;BMP_pressure;BME280_temperature;BME280_humidity;BME280_pressure;Samples;Min_cycle;Max_cycle;Signal;HPM_P1;HPM_P2
2022/07/06 00:00:20;;;;;;;3.58;1.70;;;;;;;14.78;63.79;96546.44;2040014;29;20421;-64
2022/07/06 00:01:21;;;;;;;4.25;1.85;;;;;;;14.70;63.90;96550.38;2024819;29;20443;-63
2022/07/06 00:02:22;;;;;;;2.55;1.70;;;;;;;14.67;63.88;96547.94;2032906;29;20079;-64
2022/07/06 00:03:24;;;;;;;2.45;1.33;;;;;;;14.61;63.47;96554.34;2040390;29;20415;-64
2022/07/06 00:04:25;;;;;;;5.40;1.77;;;;;;;14.72;63.47;96554.59;2031724;29;20048;-64
2022/07/06 00:05:26;;;;;;;5.35;1.52;;;;;;;14.82;63.11;96554.97;2032441;29;20091;-64
2022/07/06 00:06:27;;;;;;;3.97;1.95;;;;;;;14.74;62.72;96552.75;2040829;29;20036;-64
2022/07/06 00:07:30;;;;;;;3.13;1.65;;;;;;;14.72;63.56;96552.00;2040190;29;20125;-65
2022/07/06 00:08:31;;;;;;;4.85;1.70;;;;;;;14.69;63.66;96553.94;2040575;29;20051;-64
2022/07/06 00:09:33;;;;;;;4.57;1.77;;;;;;;14.66;63.81;96554.94;2040935;29;20095;-63
2022/07/06 00:10:34;;;;;;;3.78;1.50;;;;;;;14.61;64.00;96554.34;2017179;29;20060;-64
2022/07/06 00:11:35;;;;;;;6.22;1.50;;;;;;;14.61;64.15;96561.38;2025083;29;20067;-64
2022/07/06 00:12:36;;;;;;;3.30;1.40;;;;;;;14.60;64.45;96557.06;2039547;29;20402;-63
2022/07/06 00:13:37;;;;;;;3.13;1.50;;;;;;;14.55;65.02;96552.94;2032569;29;20056;-64
2022/07/06 00:14:39;;;;;;;5.63;1.95;;;;;;;14.49;64.88;96552.41;2024843;29;20036;-64
2022/07/06 00:15:40;;;;;;;2.70;1.55;;;;;;;14.59;64.73;96553.59;2032481;29;20044;-65
2022/07/06 00:16:41;;;;;;;4.25;1.90;;;;;;;14.57;64.87;96558.09;2032157;29;20063;-65
2022/07/06 00:17:42;;;;;;;3.53;1.50;;;;;;;14.49;65.00;96557.63;2040184;29;20051;-64
2022/07/06 00:18:44;;;;;;;4.13;1.75;;;;;;;14.51;65.01;96551.38;2039619;29;20577;-65
2022/07/06 00:19:45;;;;;;;3.40;1.70;;;;;;;14.30;65.38;96535.09;2040018;29;20726;-64
2022/07/06 00:20:46;;;;;;;3.30;1.45;;;;;;;14.36;65.68;96553.97;2024552;29;20408;-64
2022/07/06 00:21:47;;;;;;;5.20;1.70;;;;;;;14.38;66.03;96558.19;2032391;29;20067;-66
2022/07/06 00:22:49;;;;;;;3.90;1.90;;;;;;;14.44;65.82;96557.84;2024332;29;20052;-65
2022/07/06 00:23:51;;;;;;;3.40;1.90;;;;;;;14.42;65.94;96551.03;2017227;29;20059;-64
2022/07/06 00:24:52;;;;;;;3.67;1.70;;;;;;;14.38;66.05;96555.59;2025113;29;20073;-65
2022/07/06 00:25:54;;;;;;;2.70;1.70;;;;;;;14.44;66.47;96549.19;2024983;29;20048;-64
2022/07/06 00:26:55;;;;;;;5.63;1.83;;;;;;;14.43;66.24;96550.09;2032273;29;20048;-65
2022/07/06 00:27:56;;;;;;;5.20;2.00;;;;;;;14.38;66.46;96554.72;2032027;29;20052;-63
2022/07/06 00:28:57;;;;;;;4.07;2.00;;;;;;;14.36;66.58;96549.59;2040315;29;20048;-64
2022/07/06 00:29:59;;;;;;;4.90;2.20;;;;;;;14.31;66.67;96549.81;2040209;29;20054;-64
2022/07/06 00:31:00;;;;;;;2.80;1.80;;;;;;;14.27;67.05;96550.94;2032351;29;20052;-63
2022/07/06 00:32:01;;;;;;;8.38;1.95;;;;;;;14.21;67.33;96543.41;2024960;29;20041;-64
2022/07/06 00:33:03;;;;;;;4.43;1.95;;;;;;;14.24;67.49;96548.47;2032208;29;20044;-64
2022/07/06 00:34:04;;;;;;;4.72;1.70;;;;;;;14.24;67.30;96545.84;2040502;29;20099;-64
2022/07/06 00:35:06;;;;;;;4.00;1.80;;;;;;;14.24;67.31;96552.84;2040130;29;20048;-64
2022/07/06 00:36:07;;;;;;;3.47;1.65;;;;;;;14.26;67.67;96549.22;2032712;29;20399;-63
2022/07/06 00:37:08;;;;;;;4.65;2.00;;;;;;;14.24;67.47;96547.63;2032242;29;20173;-63
2022/07/06 00:38:10;;;;;;;4.47;2.05;;;;;;;14.22;67.35;96546.84;2024122;29;20052;-64
2022/07/06 00:39:11;;;;;;;3.25;1.65;;;;;;;14.20;67.20;96546.09;2032504;29;20434;-65
2022/07/06 00:40:12;;;;;;;4.50;2.13;;;;;;;14.16;67.51;96555.00;2032308;29;20055;-64
2022/07/06 00:41:14;;;;;;;3.95;1.75;;;;;;;14.10;68.12;96550.97;2017163;29;20041;-64
2022/07/06 00:42:15;;;;;;;4.40;2.15;;;;;;;14.06;68.03;96549.41;2033073;29;20051;-64
2022/07/06 00:43:16;;;;;;;5.22;2.17;;;;;;;14.12;68.31;96552.56;2040292;29;20043;-63
2022/07/06 00:44:17;;;;;;;3.05;1.80;;;;;;;14.04;68.44;96551.28;2017162;29;20141;-63
2022/07/06 00:45:18;;;;;;;6.40;2.30;;;;;;;14.13;68.22;96550.78;2016817;29;20057;-64
2022/07/06 00:46:20;;;;;;;3.75;1.80;;;;;;;14.16;68.88;96544.56;2032609;29;20063;-64
2022/07/06 00:47:21;;;;;;;4.28;1.55;;;;;;;14.16;68.73;96548.03;2024454;29;20446;-63
2022/07/06 00:48:22;;;;;;;2.92;2.10;;;;;;;14.10;69.29;96549.19;2032094;29;20689;-63
2022/07/06 00:50:44;;;;;;;4.65;2.20;;;;;;;13.98;69.75;96542.00;2029827;29;20061;-63
2022/07/06 00:51:46;;;;;;;4.47;2.00;;;;;;;13.98;69.67;96546.38;2032070;29;20063;-64
2022/07/06 00:52:49;;;;;;;5.85;2.33;;;;;;;14.02;69.72;96543.53;2024793;29;20048;-64
2022/07/06 00:53:50;;;;;;;4.50;2.20;;;;;;;14.01;70.01;96538.41;2032421;29;20040;-63
2022/07/06 00:54:51;;;;;;;3.85;2.20;;;;;;;14.06;70.04;96538.97;2032175;29;20051;-63
2022/07/06 00:55:52;;;;;;;4.75;2.20;;;;;;;14.16;70.73;96542.78;2025068;29;20053;-63
2022/07/06 00:56:53;;;;;;;4.28;1.80;;;;;;;14.08;70.81;96532.75;2024618;29;20051;-64
2022/07/06 00:57:55;;;;;;;4.63;1.95;;;;;;;14.12;70.76;96539.50;2025073;29;20170;-64
2022/07/06 00:58:56;;;;;;;4.25;2.08;;;;;;;14.05;71.16;96532.06;2024480;29;20044;-63
2022/07/06 00:59:57;;;;;;;3.00;1.70;;;;;;;14.03;70.89;96541.75;2023822;29;20056;-63
2022/07/06 01:00:59;;;;;;;3.20;1.90;;;;;;;14.03;70.58;96539.13;2024471;29;20049;-64
2022/07/06 01:02:00;;;;;;;2.95;1.92;;;;;;;13.92;71.12;96539.69;2041289;29;20066;-64
2022/07/06 01:03:01;;;;;;;4.75;2.30;;;;;;;13.89;71.57;96537.25;2041880;29;20059;-63
2022/07/06 01:04:03;;;;;;;8.52;2.15;;;;;;;13.98;71.02;96538.53;2042407;29;20062;-64
2022/07/06 01:05:05;;;;;;;4.50;1.90;;;;;;;13.96;71.42;96536.03;2042571;29;20050;-64
2022/07/06 01:06:06;;;;;;;4.82;2.08;;;;;;;14.03;71.19;96539.13;2049357;29;20062;-63
2022/07/06 01:07:07;;;;;;;5.47;2.08;;;;;;;14.17;71.47;96538.44;2034342;29;20055;-65
2022/07/06 01:08:08;;;;;;;3.60;2.00;;;;;;;14.22;71.48;96532.03;2017852;29;20053;-64
2022/07/06 01:09:10;;;;;;;5.18;1.83;;;;;;;14.26;71.60;96530.09;2026302;29;20052;-64
2022/07/06 01:10:12;;;;;;;4.50;2.15;;;;;;;14.22;71.76;96531.19;2034098;29;20055;-63
2022/07/06 01:11:13;;;;;;;4.18;2.05;;;;;;;14.15;72.58;96533.28;2041477;29;20078;-63
2022/07/06 01:12:14;;;;;;;6.93;2.13;;;;;;;14.04;72.87;96523.41;2041367;29;20062;-64
2022/07/06 01:13:16;;;;;;;3.70;2.13;;;;;;;13.98;73.49;96530.69;2026819;29;20052;-63
2022/07/06 01:14:17;;;;;;;3.10;1.80;;;;;;;13.95;73.75;96531.69;2019166;29;20420;-63
2022/07/06 01:15:22;;;;;;;7.05;2.30;;;;;;;13.95;73.77;96533.47;2026164;29;20060;-63
2022/07/06 01:16:23;;;;;;;4.90;2.45;;;;;;;13.88;73.61;96530.34;2027285;29;20053;-63
2022/07/06 01:17:25;;;;;;;2.97;2.08;;;;;;;13.87;73.54;96528.66;2034029;29;20048;-64
2022/07/06 01:18:26;;;;;;;4.05;2.08;;;;;;;13.90;74.49;96528.50;2018634;29;20053;-65
2022/07/06 01:19:28;;;;;;;6.15;2.40;;;;;;;14.10;73.73;96520.47;2026224;29;20056;-64
2022/07/06 01:20:29;;;;;;;3.53;2.20;;;;;;;14.21;73.69;96532.94;2026169;29;20045;-64
2022/07/06 01:21:30;;;;;;;5.47;1.95;;;;;;;14.20;73.68;96530.44;2033502;29;20040;-64
2022/07/06 01:22:31;;;;;;;3.95;2.53;;;;;;;14.18;73.74;96529.66;2041549;29;20083;-64
2022/07/06 01:23:33;;;;;;;4.90;2.30;;;;;;;14.19;74.11;96529.56;2041563;29;20040;-64
2022/07/06 01:24:36;;;;;;;5.28;2.40;;;;;;;14.14;74.36;96529.00;2033840;29;20051;-64
2022/07/06 01:25:37;;;;;;;4.30;2.42;;;;;;;14.06;74.77;96532.00;2026279;29;20044;-64
2022/07/06 01:26:38;;;;;;;4.13;2.20;;;;;;;14.02;74.90;96527.84;2033600;29;20067;-64
2022/07/06 01:27:40;;;;;;;4.55;2.33;;;;;;;14.07;74.63;96531.06;2025462;29;20051;-63
2022/07/06 01:28:42;;;;;;;4.53;2.50;;;;;;;14.04;75.21;96523.41;2025586;29;20056;-63
2022/07/06 01:29:43;;;;;;;4.53;2.50;;;;;;;14.02;74.60;96538.31;2034128;29;20047;-63
2022/07/06 01:30:44;;;;;;;10.93;2.45;;;;;;;13.99;75.32;96535.84;2033710;29;20059;-64
2022/07/06 01:31:48;;;;;;;4.95;2.25;;;;;;;14.02;75.68;96537.47;2025926;29;20138;-63
2022/07/06 01:32:50;;;;;;;9.20;2.60;;;;;;;13.95;75.95;96536.09;2026213;29;20052;-64
2022/07/06 01:33:52;;;;;;;6.20;2.72;;;;;;;13.97;75.82;96536.84;2033387;29;20055;-64
2022/07/06 01:34:54;;;;;;;5.00;2.20;;;;;;;13.95;76.20;96536.09;2034350;29;20067;-64
2022/07/06 01:35:55;;;;;;;4.18;2.13;;;;;;;13.84;76.17;96534.88;2025702;29;20045;-63
2022/07/06 01:36:58;;;;;;;3.67;2.33;;;;;;;13.68;77.39;96533.97;2025950;29;20053;-64
2022/07/06 01:37:59;;;;;;;3.38;2.42;;;;;;;13.60;77.72;96538.75;2033415;29;20052;-64
2022/07/06 01:39:00;;;;;;;4.78;2.40;;;;;;;13.55;78.14;96535.50;2041258;29;20051;-63
2022/07/06 01:40:03;;;;;;;4.93;2.58;;;;;;;13.56;78.32;96532.84;2041058;29;20051;-63
2022/07/06 01:41:05;;;;;;;6.70;2.78;;;;;;;13.59;78.17;96535.28;2041330;29;20048;-64
2022/07/06 01:42:06;;;;;;;3.30;2.67;;;;;;;13.62;78.02;96536.91;2018430;29;20557;-62
2022/07/06 01:43:07;;;;;;;4.53;2.58;;;;;;;13.51;78.62;96534.00;2025731;29;20055;-63
2022/07/06 01:44:09;;;;;;;5.90;2.47;;;;;;;13.39;78.86;96532.81;2026439;29;20071;-63
2022/07/06 01:45:11;;;;;;;3.90;2.33;;;;;;;13.35;79.65;96542.59;2018900;29;20057;-63
2022/07/06 01:46:13;;;;;;;4.75;3.00;;;;;;;13.32;79.64;96531.47;2018892;29;20056;-63
2022/07/06 01:47:15;;;;;;;4.70;3.00;;;;;;;13.33;79.25;96526.16;2033370;29;20403;-62
2022/07/06 01:48:16;;;;;;;10.20;3.08;;;;;;;13.34;79.60;96535.69;2033429;29;20437;-63
2022/07/06 01:49:18;;;;;;;6.15;2.90;;;;;;;13.32;79.51;96534.91;2026033;29;20052;-63
2022/07/06 01:50:19;;;;;;;5.63;2.85;;;;;;;13.29;79.92;96535.06;2033261;29;20048;-63
2022/07/06 01:51:22;;;;;;;3.65;2.58;;;;;;;13.26;79.97;96532.63;2033702;29;20427;-63
2022/07/06 01:52:23;;;;;;;7.20;2.67;;;;;;;13.23;80.23;96530.09;2033478;29;20470;-63
2022/07/06 01:53:24;;;;;;;5.70;2.67;;;;;;;13.25;79.95;96530.88;2033595;29;20116;-63
2022/07/06 01:54:25;;;;;;;5.13;3.08;;;;;;;13.25;79.92;96534.31;2025950;29;20530;-65
2022/07/06 01:55:26;;;;;;;5.75;2.85;;;;;;;13.27;80.09;96530.84;2018454;29;20053;-63
2022/07/06 01:56:28;;;;;;;5.53;2.72;;;;;;;13.30;80.23;96528.91;2033234;29;20044;-63
2022/07/06 01:57:33;;;;;;;4.57;2.63;;;;;;;13.26;79.54;96527.41;2040530;29;20059;-64
2022/07/06 01:58:35;;;;;;;4.72;2.88;;;;;;;13.20;80.27;96522.44;2018711;29;20041;-63
2022/07/06 01:59:36;;;;;;;8.57;2.80;;;;;;;13.17;80.88;96517.38;2025755;29;20538;-63
2022/07/06 02:00:38;;;;;;;4.85;2.90;;;;;;;13.12;80.59;96522.81;2025805;29;20040;-64
2022/07/06 02:01:39;;;;;;;7.20;2.72;;;;;;;13.20;80.00;96525.91;2026221;29;20055;-64
2022/07/06 02:02:40;;;;;;;3.70;2.60;;;;;;;13.21;80.35;96522.38;2033084;29;20067;-63
2022/07/06 02:03:45;;;;;;;9.10;2.90;;;;;;;13.17;79.99;96526.03;2026477;29;20041;-64
2022/07/06 02:04:47;;;;;;;4.95;2.88;;;;;;;13.16;80.13;96523.53;2026493;29;20056;-63
2022/07/06 02:05:48;;;;;;;4.18;2.80;;;;;;;13.02;80.29;96511.16;2033163;29;20052;-64
2022/07/06 02:06:49;;;;;;;4.80;2.90;;;;;;;12.96;81.59;96520.13;2033349;29;20052;-64
2022/07/06 02:07:50;;;;;;;5.68;2.90;;;;;;;12.96;81.47;96520.13;2025989;29;20479;-64
2022/07/06 02:08:53;;;;;;;5.22;2.90;;;;;;;12.92;81.40;96521.19;2033063;29;20056;-64
2022/07/06 02:09:55;;;;;;;6.93;2.88;;;;;;;12.92;81.66;96521.19;2040920;29;20059;-64
2022/07/06 02:10:58;;;;;;;5.40;2.75;;;;;;;12.98;81.71;96520.88;2034172;29;20055;-62
2022/07/06 02:12:00;;;;;;;6.72;3.35;;;;;;;12.96;81.17;96521.88;2041363;29;20074;-64
2022/07/06 02:13:01;;;;;;;8.52;3.05;;;;;;;12.89;81.64;96523.94;2048667;28;20058;-63
2022/07/06 02:14:02;;;;;;;6.28;3.40;;;;;;;12.88;82.36;96526.59;2040521;29;20051;-64
2022/07/06 02:15:04;;;;;;;5.30;2.70;;;;;;;12.88;81.61;96522.22;2033202;29;20051;-64
2022/07/06 02:16:05;;;;;;;4.70;2.90;;;;;;;12.91;81.93;96519.50;2032938;29;20478;-64
2022/07/06 02:17:06;;;;;;;3.83;2.85;;;;;;;12.87;81.95;96520.56;2018591;29;20049;-64
2022/07/06 02:18:09;;;;;;;7.03;3.20;;;;;;;12.84;82.21;96525.06;2025659;29;20053;-65
2022/07/06 02:19:10;;;;;;;4.70;2.80;;;;;;;12.78;81.97;96526.22;2026143;29;20055;-65
2022/07/06 02:20:12;;;;;;;6.82;2.83;;;;;;;12.85;82.13;96527.59;2032829;29;20068;-66
2022/07/06 02:21:13;;;;;;;9.30;3.10;;;;;;;12.90;82.79;96522.16;2043289;29;20048;-65
2022/07/06 02:22:14;;;;;;;5.43;2.75;;;;;;;12.93;82.30;96524.63;2035162;29;20044;-64
2022/07/06 02:23:16;;;;;;;7.20;3.00;;;;;;;12.91;82.34;96522.09;2028788;29;20044;-64
2022/07/06 02:24:18;;;;;;;6.13;3.10;;;;;;;12.90;82.58;96522.16;2025640;29;20048;-63
2022/07/06 02:25:19;;;;;;;4.28;2.88;;;;;;;12.90;82.84;96523.00;2025620;29;20527;-64
2022/07/06 02:26:21;;;;;;;4.78;2.72;;;;;;;12.97;82.55;96523.56;2033634;29;20533;-65
2022/07/06 02:27:23;;;;;;;4.70;2.75;;;;;;;12.97;82.18;96519.19;2033462;29;20059;-64
2022/07/06 02:28:24;;;;;;;5.00;2.60;;;;;;;13.04;81.28;96522.34;2033458;29;20052;-64
2022/07/06 02:29:26;;;;;;;4.50;2.72;;;;;;;13.06;81.46;96519.66;2018204;29;20048;-64
2022/07/06 02:30:27;;;;;;;6.47;2.70;;;;;;;13.07;81.65;96523.94;2026043;29;20048;-63
2022/07/06 02:31:29;;;;;;;5.20;2.95;;;;;;;12.99;81.98;96519.97;2025667;29;20048;-64
2022/07/06 02:32:30;;;;;;;3.30;2.25;;;;;;;13.05;81.69;96520.59;2025856;29;20048;-64
2022/07/06 02:33:31;;;;;;;5.00;2.95;;;;;;;13.12;81.21;96520.19;2033110;29;20043;-64
2022/07/06 02:34:33;;;;;;;4.03;2.65;;;;;;;13.12;80.96;96519.34;2040863;29;20062;-63
2022/07/06 02:35:37;;;;;;;4.95;2.85;;;;;;;13.05;81.02;96515.38;2025848;29;20048;-63
2022/07/06 02:36:39;;;;;;;5.80;2.88;;;;;;;13.01;81.48;96518.13;2019171;29;20048;-63
2022/07/06 02:37:40;;;;;;;5.80;2.80;;;;;;;12.97;81.79;96521.81;2032769;29;20066;-64
2022/07/06 02:38:41;;;;;;;3.55;2.35;;;;;;;12.95;81.28;96521.03;2033166;29;20052;-64
2022/07/06 02:39:42;;;;;;;4.90;3.28;;;;;;;12.90;81.94;96517.78;2025619;29;20045;-63
2022/07/06 02:40:44;;;;;;;5.53;3.10;;;;;;;12.87;82.27;96517.09;2033027;29;20095;-64
2022/07/06 02:41:47;;;;;;;4.10;2.70;;;;;;;12.85;82.32;96514.56;2041158;29;20066;-64
2022/07/06 02:42:48;;;;;;;4.88;2.80;;;;;;;12.75;82.23;96516.78;2040949;29;20063;-64
2022/07/06 02:43:50;;;;;;;4.25;3.17;;;;;;;12.75;82.95;96521.13;2040445;29;20043;-64
2022/07/06 02:44:53;;;;;;;4.78;3.03;;;;;;;12.75;82.63;96523.72;2033474;29;20063;-64
2022/07/06 02:45:55;;;;;;;4.65;2.80;;;;;;;12.77;82.13;96514.91;2033301;29;20357;-63
2022/07/06 02:46:57;;;;;;;4.38;2.72;;;;;;;12.76;82.85;96520.22;2033542;29;20052;-64
2022/07/06 02:47:58;;;;;;;6.28;2.90;;;;;;;12.83;82.69;96519.03;2040698;29;20048;-63
2022/07/06 02:49:00;;;;;;;3.67;2.75;;;;;;;12.79;82.40;96522.69;2033112;29;20463;-63
2022/07/06 02:50:02;;;;;;;3.83;2.83;;;;;;;12.73;82.75;96518.59;2032706;29;20112;-64
2022/07/06 02:51:03;;;;;;;5.00;2.92;;;;;;;12.80;82.90;96526.97;2040661;29;20059;-64
2022/07/06 02:52:05;;;;;;;6.55;2.80;;;;;;;12.76;82.84;96522.81;2041017;29;20059;-63
2022/07/06 02:53:07;;;;;;;5.53;2.70;;;;;;;12.69;82.20;96517.03;2032703;29;20059;-64
2022/07/06 02:54:09;;;;;;;5.25;3.10;;;;;;;12.66;82.76;96526.78;2033340;29;20028;-64
2022/07/06 02:55:10;;;;;;;6.80;2.80;;;;;;;12.55;83.20;96530.72;2017755;29;20484;-64
2022/07/06 02:56:12;;;;;;;5.57;2.78;;;;;;;12.65;83.52;96527.72;2025773;29;20052;-64
2022/07/06 02:57:13;;;;;;;3.42;2.83;;;;;;;12.62;82.86;96526.09;2040381;29;20059;-64
2022/07/06 02:58:14;;;;;;;5.45;2.75;;;;;;;12.66;83.42;96525.00;2040223;29;20058;-64
2022/07/06 02:59:16;;;;;;;6.28;3.08;;;;;;;12.66;82.89;96525.00;2033476;29;20059;-64
2022/07/06 03:00:18;;;;;;;5.15;2.85;;;;;;;12.64;83.12;96531.22;2033806;29;20387;-64
2022/07/06 03:01:19;;;;;;;7.22;3.13;;;;;;;12.63;83.05;96526.94;2032973;29;20092;-64
2022/07/06 03:02:21;;;;;;;4.72;2.95;;;;;;;12.53;83.70;96526.50;2025547;29;20056;-63
2022/07/06 03:03:22;;;;;;;5.32;2.70;;;;;;;12.66;83.19;96535.44;2032603;29;20047;-63
2022/07/06 03:04:24;;;;;;;5.85;3.33;;;;;;;12.64;83.19;96534.66;2025641;29;20049;-64
2022/07/06 03:05:25;;;;;;;4.35;2.63;;;;;;;12.71;83.16;96538.69;2025303;29;20558;-64
2022/07/06 03:06:26;;;;;;;5.47;2.55;;;;;;;12.79;83.07;96539.16;2033074;29;20474;-64
2022/07/06 03:07:28;;;;;;;5.25;3.15;;;;;;;12.76;83.33;96541.06;2032845;29;20420;-63
2022/07/06 03:08:30;;;;;;;6.25;3.20;;;;;;;12.74;83.06;96542.91;2032940;29;20557;-63
2022/07/06 03:09:31;;;;;;;6.97;2.90;;;;;;;12.66;83.64;96545.03;2025339;29;20044;-64
2022/07/06 03:10:33;;;;;;;7.93;3.25;;;;;;;12.61;84.00;96550.44;2033175;29;20560;-64
2022/07/06 03:11:36;;;;;;;7.32;2.85;;;;;;;12.55;83.86;96555.94;2032541;29;20663;-63
2022/07/06 03:12:38;;;;;;;6.50;3.30;;;;;;;12.51;84.29;96551.78;2040961;29;20052;-64
2022/07/06 03:13:39;;;;;;;4.95;2.92;;;;;;;12.47;84.71;96556.28;2025181;29;20045;-64
2022/07/06 03:14:40;;;;;;;5.32;3.05;;;;;;;12.42;84.91;96560.84;2025094;29;20064;-64
2022/07/06 03:15:42;;;;;;;8.32;3.10;;;;;;;12.37;85.75;96555.00;2032945;29;20067;-63
2022/07/06 03:16:44;;;;;;;5.40;2.80;;;;;;;12.38;84.91;96555.88;2032549;29;20079;-64
2022/07/06 03:17:45;;;;;;;7.07;3.30;;;;;;;12.36;86.29;96556.78;2033457;29;20442;-64
2022/07/06 03:18:47;;;;;;;5.18;3.10;;;;;;;12.35;86.33;96560.31;2024766;29;20565;-63
2022/07/06 03:19:48;;;;;;;6.38;3.22;;;;;;;12.35;86.40;96554.25;2017646;29;20049;-64
2022/07/06 03:20:50;;;;;;;3.70;2.80;;;;;;;12.27;86.60;96557.22;2025526;29;20415;-64
2022/07/06 03:21:52;;;;;;;4.40;2.97;;;;;;;12.30;86.41;96562.28;2025387;29;20059;-63
2022/07/06 03:22:54;;;;;;;5.50;3.20;;;;;;;12.31;86.44;96563.13;2026002;29;20056;-64
2022/07/06 03:23:55;;;;;;;4.20;2.95;;;;;;;12.35;86.66;96568.13;2032642;29;20048;-64
2022/07/06 03:24:56;;;;;;;4.40;3.30;;;;;;;12.34;86.32;96568.19;2017107;29;20048;-64
2022/07/06 03:25:58;;;;;;;4.60;3.10;;;;;;;12.33;86.62;96562.13;2009751;29;20076;-63
2022/07/06 03:26:59;;;;;;;5.03;3.70;;;;;;;12.40;87.11;96562.69;2017456;29;20480;-63
2022/07/06 03:28:00;;;;;;;4.40;2.67;;;;;;;12.42;86.90;96566.06;2032288;29;20052;-63
2022/07/06 03:29:01;;;;;;;5.25;2.95;;;;;;;12.46;87.07;96565.03;2040458;29;20043;-64
2022/07/06 03:30:03;;;;;;;3.97;3.08;;;;;;;12.44;85.87;96559.03;2025173;29;20499;-64
2022/07/06 03:31:06;;;;;;;4.07;3.05;;;;;;;12.51;85.89;96564.81;2010172;29;20563;-64
2022/07/06 03:32:07;;;;;;;4.88;3.00;;;;;;;12.56;86.08;96563.69;2010106;29;20595;-63
2022/07/06 03:33:09;;;;;;;3.60;3.00;;;;;;;12.69;85.36;96561.34;2025089;29;20108;-62
2022/07/06 03:34:10;;;;;;;5.63;3.38;;;;;;;12.67;85.26;96565.81;2032659;29;20055;-64
2022/07/06 03:35:12;;;;;;;4.00;2.58;;;;;;;12.66;84.84;96568.47;2048625;29;20063;-64
2022/07/06 03:36:13;;;;;;;4.13;3.08;;;;;;;12.67;84.47;96570.16;2040802;29;20059;-63
2022/07/06 03:37:15;;;;;;;5.45;2.58;;;;;;;12.65;84.70;96572.84;2032584;29;20434;-64
2022/07/06 03:38:17;;;;;;;4.43;2.80;;;;;;;12.67;84.93;96575.38;2032890;29;20056;-64
2022/07/06 03:39:18;;;;;;;4.68;2.80;;;;;;;12.72;85.04;96568.19;2033185;29;20044;-64
2022/07/06 03:40:20;;;;;;;4.75;3.08;;;;;;;12.78;84.35;96566.16;2025386;29;20061;-63
2022/07/06 03:41:23;;;;;;;4.50;2.92;;;;;;;12.87;84.02;96570.06;2033035;29;20430;-64
2022/07/06 03:42:24;;;;;;;5.28;2.83;;;;;;;12.93;83.19;96571.53;2025065;29;20052;-64
2022/07/06 03:43:26;;;;;;;4.72;2.80;;;;;;;12.96;82.96;96569.66;2032893;29;20040;-63
2022/07/06 03:44:28;;;;;;;3.20;2.67;;;;;;;12.97;83.26;96570.50;2032624;29;20048;-63
2022/07/06 03:45:30;;;;;;;6.03;2.75;;;;;;;12.99;82.38;96572.13;2032521;29;20099;-64
2022/07/06 03:46:33;;;;;;;4.03;2.05;;;;;;;13.05;82.31;96568.38;2025738;29;20052;-64
2022/07/06 03:47:35;;;;;;;3.53;2.47;;;;;;;13.08;82.33;96569.97;2018273;29;20044;-63
2022/07/06 03:48:38;;;;;;;3.58;2.22;;;;;;;13.11;82.10;96569.84;2025411;29;20063;-63
2022/07/06 03:49:40;;;;;;;4.25;2.42;;;;;;;13.11;82.29;96573.28;2032578;29;20051;-65
2022/07/06 03:50:44;;;;;;;5.13;2.35;;;;;;;13.14;81.93;96565.31;2024848;29;20059;-65
2022/07/06 03:51:45;;;;;;;4.28;2.75;;;;;;;13.18;81.82;96568.63;2025512;29;20575;-64
2022/07/06 03:52:47;;;;;;;4.47;2.83;;;;;;;13.23;81.34;96577.03;2016921;29;20060;-65
2022/07/06 03:53:49;;;;;;;4.03;2.50;;;;;;;13.15;81.25;96567.00;2017776;29;20049;-64
2022/07/06 03:54:50;;;;;;;6.03;2.40;;;;;;;13.20;81.10;96574.59;2017426;29;20674;-62
2022/07/06 03:57:19;;;;;;;3.03;2.45;;;;;;;13.25;81.18;96563.00;2050057;23;20051;-62
2022/07/06 03:58:20;;;;;;;3.83;2.40;;;;;;;13.36;80.69;96570.34;2018106;29;20446;-62
2022/07/06 03:59:21;;;;;;;5.10;2.63;;;;;;;13.39;80.89;96569.34;2027811;29;20052;-61
2022/07/06 04:00:23;;;;;;;4.05;2.42;;;;;;;13.34;81.27;96567.00;2027798;29;20048;-62
2022/07/06 04:01:32;;;;;;;4.22;2.42;;;;;;;13.38;81.30;96567.66;2028704;29;20477;-61
2022/07/06 04:02:34;;;;;;;4.13;2.65;;;;;;;13.37;81.88;96561.63;2036102;29;20048;-61
2022/07/06 04:03:35;;;;;;;5.82;2.08;;;;;;;13.51;80.33;96565.31;2035042;29;20146;-59
2022/07/06 04:04:38;;;;;;;3.97;2.38;;;;;;;13.53;79.87;96560.88;2042712;29;20051;-63
2022/07/06 04:05:39;;;;;;;2.97;2.10;;;;;;;13.53;80.08;96563.47;2035568;29;20430;-62
2022/07/06 04:06:41;;;;;;;3.38;2.40;;;;;;;13.49;80.22;96565.38;2027790;29;20049;-62
2022/07/06 04:07:42;;;;;;;4.15;2.28;;;;;;;13.55;79.96;96570.31;2025842;29;20052;-61
2022/07/06 04:08:44;;;;;;;4.07;2.35;;;;;;;13.50;80.67;96568.81;2032538;29;20051;-63
2022/07/06 04:09:46;;;;;;;4.15;2.20;;;;;;;13.55;79.69;96565.09;2032612;29;20058;-62
2022/07/06 04:10:47;;;;;;;4.13;2.60;;;;;;;13.62;79.99;96566.44;2025340;29;20053;-62
2022/07/06 04:11:48;;;;;;;4.07;2.30;;;;;;;13.58;79.71;96561.44;2025682;29;20526;-62
2022/07/06 04:12:50;;;;;;;5.07;2.50;;;;;;;13.58;80.26;96564.06;2040937;29;20528;-61
2022/07/06 04:13:54;;;;;;;7.20;2.58;;;;;;;13.60;78.62;96564.84;2032763;29;20048;-62
2022/07/06 04:14:57;;;;;;;3.47;2.50;;;;;;;13.64;79.53;96569.84;2024981;29;20048;-62
2022/07/06 04:15:58;;;;;;;5.22;2.80;;;;;;;13.64;79.36;96574.22;2018223;29;20057;-61
2022/07/06 04:17:51;;;;;;;4.20;2.45;;;;;;;13.61;79.22;96571.75;2024839;29;20052;-63
2022/07/06 04:18:21;;;;;;;5.13;2.33;;;;;;;13.61;79.51;96571.75;2029837;29;20422;-62
2022/07/06 04:19:26;;;;;;;3.50;2.53;;;;;;;13.61;79.71;96584.81;2029082;29;20047;-62
2022/07/06 04:20:28;;;;;;;4.18;2.65;;;;;;;13.65;79.77;96574.13;2025622;29;20051;-62
2022/07/06 04:21:31;;;;;;;4.10;2.50;;;;;;;13.71;79.28;96577.34;2025632;29;20052;-62
2022/07/06 04:22:36;;;;;;;4.85;2.55;;;;;;;13.72;79.12;96577.28;2032639;29;20040;-62
2022/07/06 04:23:38;;;;;;;4.22;2.50;;;;;;;13.80;78.87;96580.34;2026623;29;20522;-61
2022/07/06 04:24:41;;;;;;;5.60;2.80;;;;;;;13.88;78.74;96580.78;2040403;29;20039;-62
2022/07/06 04:25:43;;;;;;;4.30;2.45;;;;;;;13.91;78.15;96582.41;2033079;29;20450;-62
2022/07/06 04:26:45;;;;;;;3.63;2.42;;;;;;;13.97;78.03;96581.25;2025074;29;20053;-62
2022/07/06 04:27:46;;;;;;;4.07;2.38;;;;;;;13.95;78.40;96581.31;2017161;29;20053;-62
2022/07/06 04:28:49;;;;;;;4.35;2.20;;;;;;;13.98;77.79;96577.69;2025744;29;20052;-62
2022/07/06 04:29:50;;;;;;;5.88;2.53;;;;;;;14.00;77.50;96583.69;2033394;29;20059;-62
2022/07/06 04:30:52;;;;;;;5.22;2.55;;;;;;;13.93;78.25;96588.41;2040409;29;20063;-62
2022/07/06 04:31:56;;;;;;;3.55;2.40;;;;;;;13.94;77.99;96586.63;2032662;29;20059;-62
2022/07/06 04:32:58;;;;;;;4.93;2.30;;;;;;;14.00;77.21;96586.31;2032963;29;20433;-62
2022/07/06 04:34:03;;;;;;;3.78;2.53;;;;;;;14.06;76.99;96588.59;2041089;29;20052;-62
2022/07/06 04:35:05;;;;;;;4.85;2.28;;;;;;;14.11;76.70;96589.19;2032982;29;20040;-62
2022/07/06 04:36:06;;;;;;;4.40;2.63;;;;;;;14.18;76.75;96590.59;2032716;29;20546;-62
2022/07/06 04:37:14;;;;;;;9.07;2.70;;;;;;;14.20;76.71;96590.50;2033388;29;20051;-62
2022/07/06 04:38:16;;;;;;;3.85;2.30;;;;;;;14.21;76.79;96590.41;2032349;29;20055;-62
2022/07/06 04:39:19;;;;;;;3.60;2.50;;;;;;;14.25;76.57;96591.13;2017524;29;20079;-62
2022/07/06 04:40:20;;;;;;;3.80;2.60;;;;;;;14.26;75.90;96588.41;2032945;29;20095;-62
2022/07/06 04:41:25;;;;;;;3.10;2.10;;;;;;;14.20;76.49;96588.75;2033306;29;20055;-61
2022/07/06 04:42:27;;;;;;;5.78;2.53;;;;;;;14.23;76.03;96583.34;2040160;29;20059;-62
2022/07/06 04:43:29;;;;;;;4.15;2.58;;;;;;;14.25;75.72;96593.72;2025427;29;20550;-61
2022/07/06 04:44:31;;;;;;;6.65;2.67;;;;;;;14.28;75.39;96590.97;2033222;29;20051;-63
2022/07/06 04:45:32;;;;;;;3.22;2.58;;;;;;;14.28;75.62;96589.19;2040591;29;20036;-62
2022/07/06 04:46:35;;;;;;;6.03;2.55;;;;;;;14.32;74.96;96590.69;2025116;29;20079;-62
2022/07/06 04:47:37;;;;;;;5.50;2.60;;;;;;;14.37;74.60;96592.22;2017320;29;20052;-61
2022/07/06 04:48:39;;;;;;;5.05;2.47;;;;;;;14.42;73.97;96593.69;2017547;29;20045;-62
2022/07/06 04:49:43;;;;;;;6.75;2.40;;;;;;;14.46;73.32;96592.59;2025877;29;20056;-62
2022/07/06 04:50:45;;;;;;;8.80;2.65;;;;;;;14.48;73.30;96587.28;2032815;29;20047;-62
2022/07/06 04:51:52;;;;;;;4.30;2.17;;;;;;;14.59;73.00;96591.97;2033309;29;20052;-62
2022/07/06 04:52:54;;;;;;;4.45;2.50;;;;;;;14.59;73.64;96592.78;2032845;29;20478;-62
2022/07/06 04:53:58;;;;;;;4.90;2.50;;;;;;;14.59;73.55;96590.19;2033223;29;20052;-62